Lemasters, Pennsylvania
Current Conditions -  °F | °C
As of 10:53 PM on Wednesday 28 Jan 2015 (Local Time) from KHGR Reporting Station
Clear Clear  
Wind Chill: 12°   Ceiling: Unl
Heat Index: 20°   Visibility: 10mi
Dew Point:   Wind: 6mph
Humidity: 50%   Direction: 170°S
Pressure: 30.32"   Gusts: NA
Location:  39.86°N, 77.86°W
Report Text: KHGR 290353Z AUTO 17005KT 10SM CLR M07/M16 A3032 RMK AO2 SLP289 T10671156 TSNO
Loading
Personal Weather Stations






























Interactive Weather Map New forecast layout! Learn more

10-Day Weather Forecast

Advertisements
Track Severe Weather on mobile